sensor_id;sensor_type;location;lat;lon;timestamp;P1;durP1;ratioP1;P2;durP2;ratioP2
4616;SDS011;2321;42.704;23.384;2024-03-23T00:54:19;26.27;;;7.90;;
4616;SDS011;2321;42.704;23.384;2024-03-23T00:56:45;16.10;;;5.47;;
4616;SDS011;2321;42.704;23.384;2024-03-23T00:59:12;11.77;;;6.67;;
4616;SDS011;2321;42.704;23.384;2024-03-23T01:01:39;13.97;;;5.97;;
4616;SDS011;2321;42.704;23.384;2024-03-23T01:04:06;11.00;;;6.23;;
4616;SDS011;2321;42.704;23.384;2024-03-23T01:06:32;8.97;;;6.00;;
4616;SDS011;2321;42.704;23.384;2024-03-23T01:08:59;13.97;;;5.90;;
4616;SDS011;2321;42.704;23.384;2024-03-23T01:11:26;16.17;;;7.30;;
4616;SDS011;2321;42.704;23.384;2024-03-23T01:13:54;12.20;;;6.37;;
4616;SDS011;2321;42.704;23.384;2024-03-23T01:16:21;31.63;;;7.93;;
4616;SDS011;2321;42.704;23.384;2024-03-23T01:18:48;14.07;;;7.10;;
4616;SDS011;2321;42.704;23.384;2024-03-23T01:21:14;16.43;;;6.43;;
4616;SDS011;2321;42.704;23.384;2024-03-23T01:23:41;10.10;;;6.47;;
4616;SDS011;2321;42.704;23.384;2024-03-23T01:26:07;13.10;;;7.23;;
4616;SDS011;2321;42.704;23.384;2024-03-23T01:28:36;15.33;;;7.53;;
4616;SDS011;2321;42.704;23.384;2024-03-23T01:31:02;13.10;;;7.77;;
4616;SDS011;2321;42.704;23.384;2024-03-23T01:33:29;10.70;;;6.30;;
4616;SDS011;2321;42.704;23.384;2024-03-23T01:35:55;12.33;;;6.10;;
4616;SDS011;2321;42.704;23.384;2024-03-23T01:38:22;23.10;;;7.13;;
4616;SDS011;2321;42.704;23.384;2024-03-23T01:40:48;17.67;;;5.50;;
4616;SDS011;2321;42.704;23.384;2024-03-23T01:43:16;23.33;;;8.00;;
4616;SDS011;2321;42.704;23.384;2024-03-23T01:45:43;16.47;;;9.13;;
4616;SDS011;2321;42.704;23.384;2024-03-23T01:48:10;15.53;;;8.27;;
4616;SDS011;2321;42.704;23.384;2024-03-23T01:50:37;10.27;;;6.37;;
4616;SDS011;2321;42.704;23.384;2024-03-23T01:53:05;6.70;;;6.10;;
4616;SDS011;2321;42.704;23.384;2024-03-23T01:55:32;9.73;;;5.07;;
4616;SDS011;2321;42.704;23.384;2024-03-23T01:57:59;8.67;;;4.87;;
4616;SDS011;2321;42.704;23.384;2024-03-23T02:00:25;10.80;;;6.13;;
4616;SDS011;2321;42.704;23.384;2024-03-23T02:02:54;6.83;;;5.20;;
4616;SDS011;2321;42.704;23.384;2024-03-23T02:05:21;4.77;;;4.47;;
4616;SDS011;2321;42.704;23.384;2024-03-23T02:07:49;13.10;;;6.03;;
4616;SDS011;2321;42.704;23.384;2024-03-23T02:10:16;7.80;;;5.67;;
4616;SDS011;2321;42.704;23.384;2024-03-23T02:12:43;6.57;;;5.43;;
4616;SDS011;2321;42.704;23.384;2024-03-23T02:15:09;11.80;;;5.67;;
4616;SDS011;2321;42.704;23.384;2024-03-23T02:17:36;9.13;;;5.37;;
4616;SDS011;2321;42.704;23.384;2024-03-23T02:20:04;8.40;;;4.20;;
4616;SDS011;2321;42.704;23.384;2024-03-23T02:22:35;13.63;;;6.90;;
4616;SDS011;2321;42.704;23.384;2024-03-23T02:25:04;5.60;;;5.07;;
4616;SDS011;2321;42.704;23.384;2024-03-23T02:27:32;7.67;;;5.93;;
4616;SDS011;2321;42.704;23.384;2024-03-23T02:29:58;9.00;;;6.87;;
4616;SDS011;2321;42.704;23.384;2024-03-23T02:32:25;9.50;;;6.40;;
4616;SDS011;2321;42.704;23.384;2024-03-23T02:34:51;6.70;;;5.17;;
4616;SDS011;2321;42.704;23.384;2024-03-23T02:37:19;15.00;;;9.40;;
4616;SDS011;2321;42.704;23.384;2024-03-23T02:39:45;15.10;;;4.87;;
4616;SDS011;2321;42.704;23.384;2024-03-23T02:42:13;12.00;;;4.57;;
4616;SDS011;2321;42.704;23.384;2024-03-23T02:44:41;8.90;;;6.70;;
4616;SDS011;2321;42.704;23.384;2024-03-23T02:47:08;8.80;;;6.20;;
4616;SDS011;2321;42.704;23.384;2024-03-23T02:49:34;35.83;;;5.97;;
4616;SDS011;2321;42.704;23.384;2024-03-23T02:52:01;19.67;;;8.80;;
4616;SDS011;2321;42.704;23.384;2024-03-23T02:54:27;56.40;;;16.67;;
4616;SDS011;2321;42.704;23.384;2024-03-23T02:56:54;20.13;;;8.60;;
4616;SDS011;2321;42.704;23.384;2024-03-23T02:59:22;29.53;;;9.50;;
4616;SDS011;2321;42.704;23.384;2024-03-23T03:01:49;7.90;;;6.37;;
4616;SDS011;2321;42.704;23.384;2024-03-23T03:04:15;9.93;;;6.07;;
4616;SDS011;2321;42.704;23.384;2024-03-23T03:06:43;22.23;;;5.03;;
4616;SDS011;2321;42.704;23.384;2024-03-23T03:09:12;20.50;;;8.10;;
4616;SDS011;2321;42.704;23.384;2024-03-23T03:11:39;12.83;;;5.90;;
4616;SDS011;2321;42.704;23.384;2024-03-23T03:14:05;4.50;;;4.20;;
4616;SDS011;2321;42.704;23.384;2024-03-23T03:16:34;9.83;;;4.13;;
4616;SDS011;2321;42.704;23.384;2024-03-23T03:19:00;5.67;;;3.73;;
4616;SDS011;2321;42.704;23.384;2024-03-23T03:21:27;10.90;;;3.70;;
4616;SDS011;2321;42.704;23.384;2024-03-23T03:23:54;13.33;;;4.77;;
4616;SDS011;2321;42.704;23.384;2024-03-23T03:26:21;7.90;;;5.07;;
4616;SDS011;2321;42.704;23.384;2024-03-23T03:28:48;4.77;;;4.33;;
4616;SDS011;2321;42.704;23.384;2024-03-23T03:31:15;9.67;;;5.17;;
4616;SDS011;2321;42.704;23.384;2024-03-23T03:33:43;6.40;;;4.50;;
4616;SDS011;2321;42.704;23.384;2024-03-23T03:36:10;6.83;;;4.83;;
4616;SDS011;2321;42.704;23.384;2024-03-23T03:38:36;5.33;;;4.80;;
4616;SDS011;2321;42.704;23.384;2024-03-23T03:41:03;5.00;;;4.43;;
4616;SDS011;2321;42.704;23.384;2024-03-23T03:43:31;3.53;;;3.27;;
4616;SDS011;2321;42.704;23.384;2024-03-23T03:45:59;4.80;;;4.50;;
4616;SDS011;2321;42.704;23.384;2024-03-23T03:48:25;8.90;;;5.20;;
4616;SDS011;2321;42.704;23.384;2024-03-23T03:50:54;8.83;;;5.60;;
4616;SDS011;2321;42.704;23.384;2024-03-23T03:53:20;6.57;;;5.00;;
4616;SDS011;2321;42.704;23.384;2024-03-23T03:55:47;11.63;;;4.53;;
4616;SDS011;2321;42.704;23.384;2024-03-23T03:58:13;6.50;;;3.87;;
4616;SDS011;2321;42.704;23.384;2024-03-23T04:00:40;7.87;;;3.30;;
4616;SDS011;2321;42.704;23.384;2024-03-23T04:03:06;7.73;;;2.57;;
4616;SDS011;2321;42.704;23.384;2024-03-23T04:05:33;2.73;;;2.60;;
4616;SDS011;2321;42.704;23.384;2024-03-23T04:08:01;12.83;;;6.30;;
4616;SDS011;2321;42.704;23.384;2024-03-23T04:10:29;6.87;;;3.43;;
4616;SDS011;2321;42.704;23.384;2024-03-23T04:12:55;4.00;;;3.70;;
4616;SDS011;2321;42.704;23.384;2024-03-23T04:15:22;5.20;;;4.07;;
4616;SDS011;2321;42.704;23.384;2024-03-23T04:17:48;6.17;;;4.33;;
4616;SDS011;2321;42.704;23.384;2024-03-23T04:20:15;7.43;;;3.50;;
4616;SDS011;2321;42.704;23.384;2024-03-23T04:22:42;10.90;;;4.73;;
4616;SDS011;2321;42.704;23.384;2024-03-23T04:25:10;4.97;;;3.97;;
4616;SDS011;2321;42.704;23.384;2024-03-23T04:27:37;4.93;;;3.93;;
4616;SDS011;2321;42.704;23.384;2024-03-23T04:30:04;5.33;;;4.83;;
4616;SDS011;2321;42.704;23.384;2024-03-23T04:32:35;6.77;;;3.90;;
4616;SDS011;2321;42.704;23.384;2024-03-23T04:35:02;4.70;;;4.30;;
4616;SDS011;2321;42.704;23.384;2024-03-23T04:37:31;8.63;;;4.57;;
4616;SDS011;2321;42.704;23.384;2024-03-23T04:39:59;5.70;;;3.73;;
4616;SDS011;2321;42.704;23.384;2024-03-23T04:42:28;9.20;;;3.97;;
4616;SDS011;2321;42.704;23.384;2024-03-23T04:44:55;8.43;;;4.50;;
4616;SDS011;2321;42.704;23.384;2024-03-23T04:47:22;4.13;;;3.93;;
4616;SDS011;2321;42.704;23.384;2024-03-23T04:49:49;4.20;;;3.90;;
4616;SDS011;2321;42.704;23.384;2024-03-23T04:52:16;8.67;;;4.50;;
4616;SDS011;2321;42.704;23.384;2024-03-23T04:54:43;3.30;;;3.10;;
4616;SDS011;2321;42.704;23.384;2024-03-23T04:57:10;4.40;;;4.07;;
4616;SDS011;2321;42.704;23.384;2024-03-23T04:59:39;5.20;;;4.80;;
4616;SDS011;2321;42.704;23.384;2024-03-23T05:02:05;3.40;;;3.10;;
4616;SDS011;2321;42.704;23.384;2024-03-23T05:04:32;5.30;;;4.10;;
4616;SDS011;2321;42.704;23.384;2024-03-23T05:06:58;7.90;;;5.43;;
4616;SDS011;2321;42.704;23.384;2024-03-23T05:09:25;4.50;;;4.20;;
4616;SDS011;2321;42.704;23.384;2024-03-23T05:11:55;11.63;;;5.90;;
4616;SDS011;2321;42.704;23.384;2024-03-23T05:14:22;10.33;;;5.30;;
4616;SDS011;2321;42.704;23.384;2024-03-23T05:16:50;24.23;;;7.63;;
4616;SDS011;2321;42.704;23.384;2024-03-23T05:19:17;7.90;;;4.87;;
4616;SDS011;2321;42.704;23.384;2024-03-23T05:21:43;20.13;;;5.23;;
4616;SDS011;2321;42.704;23.384;2024-03-23T05:24:11;23.57;;;4.23;;
4616;SDS011;2321;42.704;23.384;2024-03-23T05:26:37;8.63;;;5.30;;
4616;SDS011;2321;42.704;23.384;2024-03-23T05:29:04;7.70;;;3.83;;
4616;SDS011;2321;42.704;23.384;2024-03-23T05:31:36;6.97;;;5.60;;
4616;SDS011;2321;42.704;23.384;2024-03-23T05:34:04;29.27;;;7.33;;
4616;SDS011;2321;42.704;23.384;2024-03-23T05:36:30;7.43;;;3.30;;
4616;SDS011;2321;42.704;23.384;2024-03-23T05:38:58;7.33;;;5.97;;
4616;SDS011;2321;42.704;23.384;2024-03-23T05:41:24;15.33;;;8.27;;
4616;SDS011;2321;42.704;23.384;2024-03-23T05:43:51;60.37;;;16.90;;
4616;SDS011;2321;42.704;23.384;2024-03-23T05:46:17;15.90;;;7.10;;
4616;SDS011;2321;42.704;23.384;2024-03-23T05:48:44;7.50;;;4.87;;
4616;SDS011;2321;42.704;23.384;2024-03-23T05:51:11;5.43;;;4.43;;
4616;SDS011;2321;42.704;23.384;2024-03-23T05:53:39;7.70;;;4.40;;
4616;SDS011;2321;42.704;23.384;2024-03-23T05:56:05;9.07;;;4.13;;
4616;SDS011;2321;42.704;23.384;2024-03-23T05:58:32;10.50;;;5.00;;
4616;SDS011;2321;42.704;23.384;2024-03-23T06:00:59;7.87;;;5.63;;
4616;SDS011;2321;42.704;23.384;2024-03-23T06:03:26;12.20;;;7.10;;
4616;SDS011;2321;42.704;23.384;2024-03-23T06:05:53;5.53;;;4.07;;
4616;SDS011;2321;42.704;23.384;2024-03-23T06:08:22;9.70;;;5.30;;
4616;SDS011;2321;42.704;23.384;2024-03-23T06:10:49;7.63;;;6.40;;
4616;SDS011;2321;42.704;23.384;2024-03-23T06:13:16;6.30;;;4.97;;
4616;SDS011;2321;42.704;23.384;2024-03-23T06:15:43;7.50;;;4.60;;
4616;SDS011;2321;42.704;23.384;2024-03-23T06:18:11;8.40;;;6.20;;
4616;SDS011;2321;42.704;23.384;2024-03-23T06:20:37;7.93;;;4.40;;
4616;SDS011;2321;42.704;23.384;2024-03-23T06:23:05;9.03;;;6.50;;
4616;SDS011;2321;42.704;23.384;2024-03-23T06:25:32;5.27;;;4.50;;
4616;SDS011;2321;42.704;23.384;2024-03-23T06:27:59;6.80;;;5.50;;
4616;SDS011;2321;42.704;23.384;2024-03-23T06:30:27;7.00;;;5.17;;
4616;SDS011;2321;42.704;23.384;2024-03-23T06:32:54;8.47;;;4.97;;
4616;SDS011;2321;42.704;23.384;2024-03-23T06:35:20;6.33;;;4.60;;
4616;SDS011;2321;42.704;23.384;2024-03-23T06:37:47;5.37;;;4.87;;
4616;SDS011;2321;42.704;23.384;2024-03-23T06:40:13;51.20;;;7.20;;
4616;SDS011;2321;42.704;23.384;2024-03-23T06:42:42;14.03;;;6.47;;
4616;SDS011;2321;42.704;23.384;2024-03-23T06:45:09;22.27;;;5.10;;
4616;SDS011;2321;42.704;23.384;2024-03-23T06:47:36;5.70;;;4.60;;
4616;SDS011;2321;42.704;23.384;2024-03-23T06:50:02;12.83;;;6.90;;
4616;SDS011;2321;42.704;23.384;2024-03-23T06:52:30;9.60;;;6.00;;
4616;SDS011;2321;42.704;23.384;2024-03-23T06:54:56;13.27;;;6.17;;
4616;SDS011;2321;42.704;23.384;2024-03-23T06:57:24;18.67;;;5.73;;
4616;SDS011;2321;42.704;23.384;2024-03-23T06:59:51;13.30;;;5.30;;
4616;SDS011;2321;42.704;23.384;2024-03-23T07:02:18;8.53;;;5.77;;
4616;SDS011;2321;42.704;23.384;2024-03-23T07:04:45;8.43;;;5.30;;
4616;SDS011;2321;42.704;23.384;2024-03-23T07:07:12;5.47;;;4.97;;
4616;SDS011;2321;42.704;23.384;2024-03-23T07:09:38;15.33;;;7.50;;
4616;SDS011;2321;42.704;23.384;2024-03-23T07:12:05;10.90;;;5.67;;
4616;SDS011;2321;42.704;23.384;2024-03-23T07:14:31;5.90;;;4.30;;
4616;SDS011;2321;42.704;23.384;2024-03-23T07:17:00;6.40;;;5.37;;
4616;SDS011;2321;42.704;23.384;2024-03-23T07:19:26;8.63;;;6.00;;
4616;SDS011;2321;42.704;23.384;2024-03-23T07:21:53;6.97;;;4.60;;
4616;SDS011;2321;42.704;23.384;2024-03-23T07:24:19;6.90;;;5.07;;
4616;SDS011;2321;42.704;23.384;2024-03-23T07:26:46;9.97;;;6.30;;
4616;SDS011;2321;42.704;23.384;2024-03-23T07:29:13;10.50;;;7.17;;
4616;SDS011;2321;42.704;23.384;2024-03-23T07:31:40;19.70;;;8.33;;
4616;SDS011;2321;42.704;23.384;2024-03-23T07:34:08;7.87;;;5.27;;
4616;SDS011;2321;42.704;23.384;2024-03-23T07:36:35;6.40;;;4.47;;
4616;SDS011;2321;42.704;23.384;2024-03-23T07:39:01;6.40;;;5.17;;
4616;SDS011;2321;42.704;23.384;2024-03-23T07:41:29;20.77;;;5.80;;
4616;SDS011;2321;42.704;23.384;2024-03-23T07:43:55;4.87;;;3.50;;
4616;SDS011;2321;42.704;23.384;2024-03-23T07:46:23;9.40;;;4.63;;
4616;SDS011;2321;42.704;23.384;2024-03-23T07:48:50;7.20;;;4.67;;
4616;SDS011;2321;42.704;23.384;2024-03-23T07:51:19;13.87;;;5.83;;
4616;SDS011;2321;42.704;23.384;2024-03-23T07:53:46;16.80;;;6.03;;
4616;SDS011;2321;42.704;23.384;2024-03-23T07:56:14;8.37;;;5.10;;
4616;SDS011;2321;42.704;23.384;2024-03-23T07:58:41;9.15;;;5.13;;
4616;SDS011;2321;42.704;23.384;2024-03-23T08:01:09;11.07;;;5.33;;
4616;SDS011;2321;42.704;23.384;2024-03-23T08:03:36;4.23;;;3.83;;
4616;SDS011;2321;42.704;23.384;2024-03-23T08:06:07;11.50;;;5.13;;
4616;SDS011;2321;42.704;23.384;2024-03-23T08:08:35;14.53;;;6.87;;
4616;SDS011;2321;42.704;23.384;2024-03-23T08:11:03;11.60;;;4.70;;
4616;SDS011;2321;42.704;23.384;2024-03-23T08:13:29;7.80;;;3.83;;
4616;SDS011;2321;42.704;23.384;2024-03-23T08:15:57;10.23;;;4.63;;
4616;SDS011;2321;42.704;23.384;2024-03-23T08:18:23;4.83;;;2.83;;
4616;SDS011;2321;42.704;23.384;2024-03-23T08:20:56;18.20;;;4.80;;
4616;SDS011;2321;42.704;23.384;2024-03-23T08:23:23;8.70;;;4.20;;
4616;SDS011;2321;42.704;23.384;2024-03-23T08:25:52;6.93;;;4.17;;
4616;SDS011;2321;42.704;23.384;2024-03-23T08:28:22;3.80;;;3.50;;
4616;SDS011;2321;42.704;23.384;2024-03-23T08:30:49;6.80;;;3.67;;
4616;SDS011;2321;42.704;23.384;2024-03-23T08:33:16;4.10;;;3.73;;
4616;SDS011;2321;42.704;23.384;2024-03-23T08:35:43;7.87;;;4.23;;
4616;SDS011;2321;42.704;23.384;2024-03-23T08:38:18;4.20;;;3.90;;
4616;SDS011;2321;42.704;23.384;2024-03-23T08:40:45;10.13;;;5.33;;
4616;SDS011;2321;42.704;23.384;2024-03-23T08:43:13;3.80;;;3.50;;
4616;SDS011;2321;42.704;23.384;2024-03-23T08:45:40;6.00;;;4.30;;
4616;SDS011;2321;42.704;23.384;2024-03-23T08:48:06;5.93;;;4.50;;
4616;SDS011;2321;42.704;23.384;2024-03-23T08:50:34;8.30;;;4.93;;
4616;SDS011;2321;42.704;23.384;2024-03-23T08:53:00;4.63;;;4.23;;
4616;SDS011;2321;42.704;23.384;2024-03-23T08:55:28;4.30;;;3.90;;
4616;SDS011;2321;42.704;23.384;2024-03-23T08:57:54;7.10;;;3.50;;
4616;SDS011;2321;42.704;23.384;2024-03-23T09:00:22;7.80;;;4.80;;
4616;SDS011;2321;42.704;23.384;2024-03-23T09:02:48;29.37;;;5.73;;
4616;SDS011;2321;42.704;23.384;2024-03-23T09:05:16;8.23;;;4.40;;
4616;SDS011;2321;42.704;23.384;2024-03-23T09:07:42;5.20;;;4.40;;
4616;SDS011;2321;42.704;23.384;2024-03-23T09:10:09;9.15;;;5.22;;
4616;SDS011;2321;42.704;23.384;2024-03-23T09:12:35;5.32;;;4.68;;
4616;SDS011;2321;42.704;23.384;2024-03-23T09:15:03;9.43;;;4.60;;
4616;SDS011;2321;42.704;23.384;2024-03-23T09:17:30;9.83;;;5.50;;
4616;SDS011;2321;42.704;23.384;2024-03-23T09:19:57;7.30;;;5.33;;
4616;SDS011;2321;42.704;23.384;2024-03-23T09:22:23;6.03;;;4.97;;
4616;SDS011;2321;42.704;23.384;2024-03-23T09:24:50;9.50;;;5.40;;
4616;SDS011;2321;42.704;23.384;2024-03-23T09:27:16;8.56;;;4.62;;
4616;SDS011;2321;42.704;23.384;2024-03-23T09:29:44;6.17;;;4.80;;
4616;SDS011;2321;42.704;23.384;2024-03-23T09:32:10;9.00;;;4.77;;
4616;SDS011;2321;42.704;23.384;2024-03-23T09:34:38;16.05;;;5.50;;
4616;SDS011;2321;42.704;23.384;2024-03-23T09:37:04;8.77;;;5.53;;
4616;SDS011;2321;42.704;23.384;2024-03-23T09:39:32;8.17;;;4.83;;
4616;SDS011;2321;42.704;23.384;2024-03-23T09:41:58;16.87;;;5.60;;
4616;SDS011;2321;42.704;23.384;2024-03-23T09:44:25;6.67;;;4.80;;
4616;SDS011;2321;42.704;23.384;2024-03-23T09:46:54;7.67;;;4.40;;
4616;SDS011;2321;42.704;23.384;2024-03-23T09:49:22;12.57;;;4.37;;
4616;SDS011;2321;42.704;23.384;2024-03-23T09:51:49;6.67;;;4.97;;
4616;SDS011;2321;42.704;23.384;2024-03-23T09:54:17;8.20;;;4.63;;
4616;SDS011;2321;42.704;23.384;2024-03-23T09:56:43;6.30;;;4.93;;
4616;SDS011;2321;42.704;23.384;2024-03-23T09:59:10;10.67;;;5.97;;
4616;SDS011;2321;42.704;23.384;2024-03-23T10:01:36;14.53;;;5.27;;
4616;SDS011;2321;42.704;23.384;2024-03-23T10:04:04;9.47;;;5.60;;
4616;SDS011;2321;42.704;23.384;2024-03-23T10:06:30;11.87;;;5.77;;
4616;SDS011;2321;42.704;23.384;2024-03-23T10:08:59;9.33;;;5.30;;
4616;SDS011;2321;42.704;23.384;2024-03-23T10:11:25;5.60;;;4.40;;
4616;SDS011;2321;42.704;23.384;2024-03-23T10:13:53;17.13;;;6.37;;
4616;SDS011;2321;42.704;23.384;2024-03-23T10:16:22;7.70;;;5.40;;
4616;SDS011;2321;42.704;23.384;2024-03-23T10:18:52;12.27;;;6.00;;
4616;SDS011;2321;42.704;23.384;2024-03-23T10:21:19;5.73;;;4.13;;
4616;SDS011;2321;42.704;23.384;2024-03-23T10:23:45;7.53;;;4.77;;
4616;SDS011;2321;42.704;23.384;2024-03-23T10:26:14;8.90;;;5.77;;
4616;SDS011;2321;42.704;23.384;2024-03-23T10:28:53;18.13;;;6.78;;
4616;SDS011;2321;42.704;23.384;2024-03-23T10:31:22;13.43;;;6.27;;
4616;SDS011;2321;42.704;23.384;2024-03-23T10:33:48;12.27;;;6.47;;
4616;SDS011;2321;42.704;23.384;2024-03-23T10:36:16;6.83;;;5.17;;
4616;SDS011;2321;42.704;23.384;2024-03-23T10:38:45;12.20;;;7.07;;
4616;SDS011;2321;42.704;23.384;2024-03-23T10:41:14;9.90;;;6.03;;
4616;SDS011;2321;42.704;23.384;2024-03-23T10:43:41;21.13;;;6.90;;
4616;SDS011;2321;42.704;23.384;2024-03-23T10:46:10;12.85;;;6.13;;
4616;SDS011;2321;42.704;23.384;2024-03-23T10:48:36;12.50;;;7.20;;
4616;SDS011;2321;42.704;23.384;2024-03-23T10:51:04;8.20;;;4.80;;
4616;SDS011;2321;42.704;23.384;2024-03-23T10:53:32;8.27;;;5.23;;
4616;SDS011;2321;42.704;23.384;2024-03-23T10:56:02;9.02;;;5.15;;
4616;SDS011;2321;42.704;23.384;2024-03-23T10:58:31;8.93;;;5.80;;
4616;SDS011;2321;42.704;23.384;2024-03-23T11:01:03;6.20;;;4.27;;
4616;SDS011;2321;42.704;23.384;2024-03-23T11:03:30;10.03;;;4.70;;
4616;SDS011;2321;42.704;23.384;2024-03-23T11:06:02;8.80;;;4.70;;
4616;SDS011;2321;42.704;23.384;2024-03-23T11:08:32;7.37;;;4.97;;
4616;SDS011;2321;42.704;23.384;2024-03-23T11:11:19;11.30;;;4.63;;
4616;SDS011;2321;42.704;23.384;2024-03-23T11:13:49;9.37;;;4.23;;
4616;SDS011;2321;42.704;23.384;2024-03-23T11:16:17;6.07;;;4.40;;
4616;SDS011;2321;42.704;23.384;2024-03-23T11:18:53;9.43;;;4.07;;
4616;SDS011;2321;42.704;23.384;2024-03-23T11:24:17;5.37;;;4.07;;
4616;SDS011;2321;42.704;23.384;2024-03-23T11:26:46;5.93;;;3.83;;
4616;SDS011;2321;42.704;23.384;2024-03-23T11:29:13;5.23;;;4.10;;
4616;SDS011;2321;42.704;23.384;2024-03-23T11:31:45;13.20;;;5.10;;
4616;SDS011;2321;42.704;23.384;2024-03-23T11:34:12;9.00;;;4.10;;
4616;SDS011;2321;42.704;23.384;2024-03-23T11:36:39;8.70;;;4.33;;
4616;SDS011;2321;42.704;23.384;2024-03-23T11:39:11;7.60;;;4.00;;
4616;SDS011;2321;42.704;23.384;2024-03-23T11:41:47;4.37;;;3.80;;
4616;SDS011;2321;42.704;23.384;2024-03-23T11:44:19;8.67;;;4.70;;
4616;SDS011;2321;42.704;23.384;2024-03-23T11:46:47;5.50;;;4.23;;
4616;SDS011;2321;42.704;23.384;2024-03-23T11:49:21;5.03;;;3.93;;
4616;SDS011;2321;42.704;23.384;2024-03-23T11:51:49;3.30;;;3.00;;
4616;SDS011;2321;42.704;23.384;2024-03-23T11:54:15;11.10;;;4.23;;
4616;SDS011;2321;42.704;23.384;2024-03-23T11:56:53;3.90;;;3.60;;
4616;SDS011;2321;42.704;23.384;2024-03-23T11:59:31;8.33;;;4.63;;
4616;SDS011;2321;42.704;23.384;2024-03-23T12:01:59;3.23;;;2.93;;
4616;SDS011;2321;42.704;23.384;2024-03-23T12:04:26;6.03;;;3.73;;
4616;SDS011;2321;42.704;23.384;2024-03-23T12:07:08;5.83;;;3.00;;
4616;SDS011;2321;42.704;23.384;2024-03-23T12:09:35;4.53;;;4.10;;
4616;SDS011;2321;42.704;23.384;2024-03-23T12:12:05;4.30;;;3.90;;
4616;SDS011;2321;42.704;23.384;2024-03-23T12:14:34;4.83;;;3.23;;
4616;SDS011;2321;42.704;23.384;2024-03-23T12:17:11;4.60;;;4.10;;
4616;SDS011;2321;42.704;23.384;2024-03-23T12:19:37;7.10;;;3.57;;
4616;SDS011;2321;42.704;23.384;2024-03-23T12:22:05;3.73;;;3.23;;
4616;SDS011;2321;42.704;23.384;2024-03-23T12:24:32;10.40;;;4.60;;
4616;SDS011;2321;42.704;23.384;2024-03-23T12:27:01;4.00;;;3.70;;
4616;SDS011;2321;42.704;23.384;2024-03-23T12:29:28;4.13;;;3.83;;
4616;SDS011;2321;42.704;23.384;2024-03-23T12:31:58;4.37;;;3.87;;
4616;SDS011;2321;42.704;23.384;2024-03-23T12:34:25;7.63;;;4.10;;
4616;SDS011;2321;42.704;23.384;2024-03-23T12:36:52;3.73;;;3.43;;
4616;SDS011;2321;42.704;23.384;2024-03-23T12:39:18;5.30;;;3.40;;
4616;SDS011;2321;42.704;23.384;2024-03-23T12:41:46;3.23;;;2.93;;
4616;SDS011;2321;42.704;23.384;2024-03-23T12:44:12;7.03;;;4.07;;
4616;SDS011;2321;42.704;23.384;2024-03-23T12:46:40;7.60;;;3.57;;
4616;SDS011;2321;42.704;23.384;2024-03-23T12:49:08;13.30;;;3.90;;
4616;SDS011;2321;42.704;23.384;2024-03-23T12:51:35;5.83;;;3.33;;
4616;SDS011;2321;42.704;23.384;2024-03-23T12:54:01;5.60;;;3.63;;
4616;SDS011;2321;42.704;23.384;2024-03-23T12:56:28;3.90;;;3.47;;
4616;SDS011;2321;42.704;23.384;2024-03-23T12:58:54;3.37;;;3.07;;
4616;SDS011;2321;42.704;23.384;2024-03-23T13:01:22;5.43;;;2.60;;
4616;SDS011;2321;42.704;23.384;2024-03-23T13:03:48;5.17;;;3.50;;
4616;SDS011;2321;42.704;23.384;2024-03-23T13:06:17;6.20;;;3.83;;
4616;SDS011;2321;42.704;23.384;2024-03-23T13:08:44;7.60;;;3.90;;
4616;SDS011;2321;42.704;23.384;2024-03-23T13:11:12;10.00;;;4.10;;
4616;SDS011;2321;42.704;23.384;2024-03-23T13:13:39;4.77;;;2.90;;
4616;SDS011;2321;42.704;23.384;2024-03-23T13:16:07;16.20;;;3.80;;
4616;SDS011;2321;42.704;23.384;2024-03-23T13:18:33;4.93;;;3.33;;
4616;SDS011;2321;42.704;23.384;2024-03-23T13:21:00;2.77;;;2.57;;
4616;SDS011;2321;42.704;23.384;2024-03-23T13:23:27;8.40;;;3.63;;
4616;SDS011;2321;42.704;23.384;2024-03-23T13:25:55;4.77;;;3.40;;
4616;SDS011;2321;42.704;23.384;2024-03-23T13:28:22;4.10;;;3.05;;
4616;SDS011;2321;42.704;23.384;2024-03-23T13:30:49;5.73;;;3.40;;
4616;SDS011;2321;42.704;23.384;2024-03-23T13:33:16;2.43;;;2.33;;
4616;SDS011;2321;42.704;23.384;2024-03-23T13:35:49;8.93;;;3.13;;
4616;SDS011;2321;42.704;23.384;2024-03-23T13:38:15;5.70;;;3.23;;
4616;SDS011;2321;42.704;23.384;2024-03-23T13:40:53;7.60;;;3.00;;
4616;SDS011;2321;42.704;23.384;2024-03-23T13:43:19;7.13;;;3.93;;
4616;SDS011;2321;42.704;23.384;2024-03-23T13:45:47;3.43;;;2.60;;
4616;SDS011;2321;42.704;23.384;2024-03-23T13:48:13;3.03;;;2.77;;
4616;SDS011;2321;42.704;23.384;2024-03-23T13:50:41;7.10;;;2.40;;
4616;SDS011;2321;42.704;23.384;2024-03-23T13:53:07;6.10;;;2.50;;
4616;SDS011;2321;42.704;23.384;2024-03-23T13:55:35;4.03;;;2.40;;
4616;SDS011;2321;42.704;23.384;2024-03-23T13:58:02;5.17;;;3.00;;
4616;SDS011;2321;42.704;23.384;2024-03-23T14:00:30;3.53;;;2.60;;
4616;SDS011;2321;42.704;23.384;2024-03-23T14:02:57;3.13;;;2.40;;
4616;SDS011;2321;42.704;23.384;2024-03-23T14:05:24;2.97;;;2.77;;
4616;SDS011;2321;42.704;23.384;2024-03-23T14:07:50;2.33;;;2.13;;
4616;SDS011;2321;42.704;23.384;2024-03-23T14:10:17;2.37;;;2.20;;
4616;SDS011;2321;42.704;23.384;2024-03-23T14:12:43;3.70;;;1.67;;
4616;SDS011;2321;42.704;23.384;2024-03-23T14:15:12;1.70;;;1.60;;
4616;SDS011;2321;42.704;23.384;2024-03-23T14:17:38;2.73;;;2.20;;
4616;SDS011;2321;42.704;23.384;2024-03-23T14:20:05;5.00;;;2.13;;
4616;SDS011;2321;42.704;23.384;2024-03-23T14:22:36;1.50;;;1.50;;
4616;SDS011;2321;42.704;23.384;2024-03-23T14:25:03;2.57;;;1.87;;
4616;SDS011;2321;42.704;23.384;2024-03-23T14:27:30;2.53;;;2.10;;
4616;SDS011;2321;42.704;23.384;2024-03-23T14:29:57;2.83;;;2.20;;
4616;SDS011;2321;42.704;23.384;2024-03-23T14:32:25;2.37;;;2.20;;
4616;SDS011;2321;42.704;23.384;2024-03-23T14:34:52;2.17;;;2.07;;
4616;SDS011;2321;42.704;23.384;2024-03-23T14:37:19;2.63;;;2.07;;
4616;SDS011;2321;42.704;23.384;2024-03-23T14:39:46;2.13;;;1.93;;
4616;SDS011;2321;42.704;23.384;2024-03-23T14:42:12;2.33;;;1.97;;
4616;SDS011;2321;42.704;23.384;2024-03-23T14:44:39;2.10;;;1.93;;
4616;SDS011;2321;42.704;23.384;2024-03-23T14:47:05;2.80;;;2.57;;
4616;SDS011;2321;42.704;23.384;2024-03-23T14:49:34;2.30;;;2.20;;
4616;SDS011;2321;42.704;23.384;2024-03-23T14:52:01;1.90;;;1.80;;
4616;SDS011;2321;42.704;23.384;2024-03-23T14:54:28;2.10;;;2.00;;
4616;SDS011;2321;42.704;23.384;2024-03-23T14:56:54;4.23;;;2.60;;
4616;SDS011;2321;42.704;23.384;2024-03-23T14:59:23;3.50;;;2.07;;
4616;SDS011;2321;42.704;23.384;2024-03-23T15:01:49;2.27;;;2.07;;
4616;SDS011;2321;42.704;23.384;2024-03-23T15:04:16;2.00;;;1.80;;
4616;SDS011;2321;42.704;23.384;2024-03-23T15:06:43;1.77;;;1.67;;
4616;SDS011;2321;42.704;23.384;2024-03-23T15:09:11;2.00;;;1.90;;
4616;SDS011;2321;42.704;23.384;2024-03-23T15:11:39;2.47;;;2.27;;
4616;SDS011;2321;42.704;23.384;2024-03-23T15:14:06;1.80;;;1.70;;
4616;SDS011;2321;42.704;23.384;2024-03-23T15:16:33;3.23;;;1.53;;
4616;SDS011;2321;42.704;23.384;2024-03-23T15:19:00;2.97;;;1.70;;
4616;SDS011;2321;42.704;23.384;2024-03-23T15:21:26;1.90;;;1.77;;
4616;SDS011;2321;42.704;23.384;2024-03-23T15:23:55;5.80;;;2.20;;
4616;SDS011;2321;42.704;23.384;2024-03-23T15:26:21;2.10;;;2.00;;
4616;SDS011;2321;42.704;23.384;2024-03-23T15:28:48;2.93;;;1.77;;
4616;SDS011;2321;42.704;23.384;2024-03-23T15:31:35;5.67;;;2.37;;
4616;SDS011;2321;42.704;23.384;2024-03-23T15:34:02;1.90;;;1.47;;
4616;SDS011;2321;42.704;23.384;2024-03-23T15:36:29;2.03;;;1.93;;
4616;SDS011;2321;42.704;23.384;2024-03-23T15:38:58;2.47;;;2.27;;
4616;SDS011;2321;42.704;23.384;2024-03-23T15:41:24;1.67;;;1.60;;
4616;SDS011;2321;42.704;23.384;2024-03-23T15:43:51;2.33;;;2.07;;
4616;SDS011;2321;42.704;23.384;2024-03-23T15:46:18;2.00;;;1.90;;
4616;SDS011;2321;42.704;23.384;2024-03-23T15:48:45;2.17;;;2.07;;
4616;SDS011;2321;42.704;23.384;2024-03-23T15:51:12;2.37;;;2.00;;
4616;SDS011;2321;42.704;23.384;2024-03-23T15:53:39;2.80;;;1.73;;
4616;SDS011;2321;42.704;23.384;2024-03-23T15:56:07;3.20;;;2.20;;